Latest Coastal Weather Observations for Bellambi

IDN60701

Issued at 8:21 pm EDT Saturday 10 December 2022 (issued every 10 minutes, with the page automatically refreshed every 10 minutes)

About coastal observations | Map of coastal stations | Coastal observations for NSW | Marine services | Other Formats
Station Details ID: 068228 Name: BELLAMBI AWS Lat: -34.37 Lon: 150.93 Height: 10.0 m
Data from the previous 72 hours. | See also: Recent months at Bellambi
Date/Time
EDT
Wind Sea
Height
m
Swell Vis
km
Cloud Weather Temp
°C
Press
MSL
hPa
Rain since
9am
mm
Dir  Spd
kts
Gust
kts
Height
m
Period
s
Dir
10/08:00pm NE 10 13 - - - - - Partly cloudy - 17.9 - 0.0
10/07:30pm NE 10 12 - - - - - Cloudy - 17.9 - 0.0
10/07:00pm ENE 9 11 - - - - - Cloudy - 18.1 - 0.0
10/06:30pm ENE 8 10 - - - - - Cloudy - 18.3 - 0.0
10/06:00pm E 9 12 - - - - - Mostly cloudy - 18.4 - 0.0
10/05:30pm ENE 9 11 - - - - - Partly cloudy - 18.3 - 0.0
10/05:00pm ENE 8 10 - - - - - Partly cloudy - 19.4 - 0.0
10/04:30pm ENE 8 11 - - - - - Partly cloudy - 19.6 - 0.0
10/04:00pm ENE 8 10 - - - - - - - 19.8 - 0.0
10/03:30pm E 8 10 - - - - - - - 19.3 - 0.0
10/03:00pm E 7 10 - - - - - Mostly clear - 19.6 - 0.0
10/02:30pm E 7 9 - - - - - Partly cloudy - 18.5 - 0.0
10/02:00pm E 7 9 - - - - - - - 19.7 - 0.0
10/01:30pm ESE 7 8 - - - - - - - 19.1 - 0.0
10/01:00pm ESE 7 9 - - - - - - - 19.7 - 0.0
10/12:30pm ESE 8 9 - - - - - - - 19.0 - 0.0
10/12:00pm SE 7 9 - - - - - Partly cloudy - 19.1 - 0.0
10/11:30am SE 9 11 - - - - - Partly cloudy - 19.6 - 0.0
10/11:00am SSE 9 11 - - - - - Partly cloudy - 18.9 - 0.0
10/10:30am SSE 9 11 - - - - - - - 18.0 - 0.0
10/10:00am SSE 8 11 - - - - - Partly cloudy - 19.0 - 0.0
10/09:30am S 8 10 - - - - - Partly cloudy - 18.6 - 0.0
10/09:00am SSW 7 10 - - - - - Mostly clear - 18.1 - 0.0
10/08:30am S 9 11 - - - - - - - 17.8 - 0.0
10/08:00am SSW 7 10 - - - - - Partly cloudy - 17.5 - 0.0
10/07:30am SW 7 11 - - - - - Partly cloudy - 17.2 - 0.0
10/07:00am SW 9 12 - - - - - Partly cloudy - 16.5 - 0.0
10/06:30am WSW 6 9 - - - - - Cloudy - 15.4 - 0.0
10/06:00am SW 7 9 - - - - - Mostly cloudy - 15.1 - 0.0
10/05:30am SW 6 8 - - - - - Cloudy - 15.0 - 0.0
10/05:00am WSW 5 8 - - - - - Cloudy - 15.0 - 0.0
10/04:30am SW 7 10 - - - - - Cloudy - 15.0 - 0.0
10/04:00am SW 7 9 - - - - - Cloudy - 15.0 - 0.0
10/03:30am SW 7 10 - - - - - Partly cloudy - 15.0 - 0.0
10/03:00am SW 8 9 - - - - - Cloudy - 15.1 - 0.0
10/02:30am SW 6 8 - - - - - Partly cloudy - 15.0 - 0.0
10/02:00am WSW 7 9 - - - - - Partly cloudy - 14.9 - 0.0
10/01:30am SW 7 10 - - - - - Partly cloudy - 14.9 - 0.0
10/01:00am SSW 13 18 - - - - - Partly cloudy - 15.3 - 0.0
10/12:30am SSW 20 24 - - - - - Partly cloudy - 15.6 - 0.0
10/12:00am SSW 13 17 - - - - - Cloudy - 16.0 - 0.0
 
Date/Time
EDT
Wind Sea
Height
m
Swell Vis
km
Cloud Weather Temp
°C
Press
MSL
hPa
Rain since
9am
mm
Dir  Spd
kts
Gust
kts
Height
m
Period
s
Dir
09/11:30pm SSW 18 21 - - - - - Cloudy - 16.4 - 0.0
09/11:00pm S 17 21 - - - - - Partly cloudy - 16.7 - 0.0
09/10:30pm S 17 21 - - - - - Partly cloudy - 16.7 - 0.0
09/10:00pm S 16 20 - - - - - Partly cloudy - 16.7 - 0.0
09/09:30pm S 16 20 - - - - - Partly cloudy - 16.8 - 0.0
09/09:00pm S 17 20 - - - - - Cloudy - 16.9 - 0.0
09/08:30pm SSE 17 20 - - - - - Partly cloudy - 16.9 - 0.0
09/08:00pm SSE 16 19 - - - - - Partly cloudy - 16.9 - 0.0
09/07:30pm S 14 17 - - - - - Partly cloudy - 16.9 - 0.0
09/07:00pm S 13 17 - - - - - Partly cloudy - 17.0 - 0.0
09/06:30pm S 13 18 - - - - - Partly cloudy - 17.2 - 0.0
09/06:00pm SSE 12 15 - - - - - - - 18.0 - 0.0
09/05:30pm SSE 13 17 - - - - - - - 17.7 - 0.0
09/05:00pm SSE 14 17 - - - - - Partly cloudy - 18.1 - 0.0
09/04:30pm SSE 14 17 - - - - - - - 18.0 - 0.0
09/04:00pm SSE 16 21 - - - - - - - 17.9 - 0.0
09/03:30pm SSE 15 18 - - - - - - - 18.4 - 0.0
09/03:00pm SSE 15 18 - - - - - - - 18.5 - 0.0
09/02:30pm S 16 19 - - - - - - - 18.2 - 0.0
09/02:00pm SSE 15 20 - - - - - - - 18.4 - 0.0
09/01:30pm SSE 14 18 - - - - - Partly cloudy - 18.3 - 0.0
09/01:00pm SSE 15 19 - - - - - Partly cloudy - 17.5 - 0.0
09/12:30pm SSE 13 17 - - - - - Partly cloudy - 17.2 - 0.0
09/12:00pm SSE 14 17 - - - - - Cloudy - 17.3 - 0.0
09/11:30am SSE 14 17 - - - - - Partly cloudy - 16.8 - 0.0
09/11:00am SSE 13 17 - - - - - Partly cloudy - 16.6 - 0.0
09/10:30am S 15 18 - - - - - Partly cloudy - 17.0 - 0.0
09/10:00am S 16 20 - - - - - Partly cloudy - 16.5 - 0.0
09/09:30am S 15 19 - - - - - Cloudy - 16.2 - 0.0
09/09:00am S 12 15 - - - - - Cloudy - 15.8 - 0.0
09/08:30am S 12 14 - - - - - Cloudy - 15.5 - 0.0
09/08:00am S 13 16 - - - - - Cloudy - 15.7 - 0.0
09/07:30am SSW 13 16 - - - - - Cloudy - 15.2 - 0.0
09/07:00am SW 9 13 - - - - - Cloudy - 14.8 - 0.0
09/06:30am SSW 11 15 - - - - - Partly cloudy - 14.3 - 0.0
09/06:00am SSW 13 19 - - - - - - - 14.3 - 0.0
09/05:30am SW 8 11 - - - - - - - 13.3 - 0.0
09/05:00am SW 7 9 - - - - - - - 13.7 - 0.0
09/04:30am SW 9 13 - - - - - Partly cloudy - 14.1 - 0.0
09/04:00am SSW 17 20 - - - - - Partly cloudy - 15.4 - 0.0
09/03:30am SSW 18 22 - - - - - Partly cloudy - 15.5 - 0.0
09/03:00am SSW 16 20 - - - - - Cloudy - 15.7 - 0.0
09/02:30am SSW 16 21 - - - - - Partly cloudy - 15.8 - 0.0
09/02:00am S 19 23 - - - - - Partly cloudy - 16.2 - 0.0
09/01:30am SSW 16 20 - - - - - Partly cloudy - 16.4 - 0.0
09/01:00am SSW 16 19 - - - - - Partly cloudy - 16.4 - 0.0
09/12:30am SSW 18 21 - - - - - Partly cloudy - 16.8 - 0.0
09/12:00am SSW 9 20 - - - - - Cloudy - 16.9 - 0.0
 
Date/Time
EDT
Wind Sea
Height
m
Swell Vis
km
Cloud Weather Temp
°C
Press
MSL
hPa
Rain since
9am
mm
Dir  Spd
kts
Gust
kts
Height
m
Period
s
Dir
08/11:30pm SW 6 8 - - - - - Partly cloudy - 16.0 - 0.0
08/11:00pm WSW 6 7 - - - - - Partly cloudy - 16.4 - 0.0
08/10:30pm SSW 10 14 - - - - - Partly cloudy - 17.0 - 0.0
08/10:00pm SW 9 13 - - - - - Partly cloudy - 16.7 - 0.0
08/09:30pm SSW 13 17 - - - - - Partly cloudy - 17.2 - 0.0
08/09:00pm S 16 20 - - - - - Partly cloudy - 17.4 - 0.0
08/08:30pm S 17 21 - - - - - Partly cloudy - 17.4 - 0.0
08/08:00pm S 19 22 - - - - - Partly cloudy - 17.6 - 0.0
08/07:30pm S 19 23 - - - - - Partly cloudy - 17.9 - 0.0
08/07:00pm S 17 20 - - - - - Partly cloudy - 17.9 - 0.0
08/06:30pm S 18 21 - - - - - Partly cloudy - 17.9 - 0.0
08/06:00pm S 17 20 - - - - - Mostly cloudy - 18.0 - 0.0
08/05:30pm S 17 19 - - - - - Cloudy - 18.0 - 0.0
08/05:00pm S 16 21 - - - - - Partly cloudy - 18.2 - 0.0
08/04:30pm S 16 20 - - - - - Partly cloudy - 19.0 - 0.0
08/04:00pm S 16 21 - - - - - Partly cloudy - 19.0 - 0.0
08/03:30pm SSE 14 18 - - - - - Partly cloudy - 18.8 - 0.0
08/03:00pm SSE 12 14 - - - - - - - 19.7 - 0.0
08/02:30pm SSE 12 15 - - - - - - - 19.3 - 0.0
08/02:00pm SSE 11 15 - - - - - Partly cloudy - 18.8 - 0.0
08/01:30pm SE 11 15 - - - - - - - 19.5 - 0.0
08/01:00pm SSE 9 13 - - - - - Partly cloudy - 19.1 - 0.0
08/12:30pm SE 11 14 - - - - - Partly cloudy - 19.1 - 0.0
08/12:00pm SE 11 14 - - - - - Mostly clear - 18.9 - 0.0
08/11:30am SSE 12 16 - - - - - Partly cloudy - 18.3 - 0.0
08/11:00am SSE 11 13 - - - - - Partly cloudy - 17.3 - 0.0
08/10:30am SSE 12 16 - - - - - Partly cloudy - 17.9 - 0.0
08/10:00am SSE 15 20 - - - - - Partly cloudy - 18.0 - 0.0
08/09:30am S 18 21 - - - - - Partly cloudy - 16.8 - 0.0
08/09:00am S 19 24 - - - - - Cloudy - 17.1 - 0.0
08/08:30am S 20 24 - - - - - Partly cloudy - 17.3 - 0.0
08/08:00am S 17 21 - - - - - Partly cloudy - 17.3 - 0.0
08/07:30am S 17 20 - - - - - Partly cloudy - 17.6 - 0.0
08/07:00am S 14 17 - - - - - - - 16.8 - 0.0
08/06:46am S 18 22 - - - - - Partly cloudy - 16.7 - 0.0
08/06:30am S 19 25 - - - - - Partly cloudy - 16.4 - 0.0
08/06:12am S 18 23 - - - - - Partly cloudy - 16.5 - 0.0
08/06:00am S 16 18 - - - - - Mostly clear - 17.1 - 0.0
08/05:30am S 17 20 - - - - - Partly cloudy - 17.3 - 0.0
08/05:00am SW 9 16 - - - - - - - 19.7 - 0.0
08/04:30am W 7 11 - - - - - Partly cloudy - 19.4 - 0.0
08/04:00am W 6 9 - - - - - - - 19.8 - 0.0
08/03:30am W 8 11 - - - - - Partly cloudy - 20.2 - 0.0
08/03:00am W 17 28 - - - - - - - 21.0 - 0.0
08/02:30am WNW 19 29 - - - - - - - 20.9 - 0.0
08/02:05am WNW 20 30 - - - - - Partly cloudy - 21.1 - 0.0
08/02:00am WNW 21 30 - - - - - Partly cloudy - 21.1 - 0.0
08/01:30am WNW 25 39 - - - - - - - 21.3 - 0.0
08/01:24am WNW 22 37 - - - - - - - 21.1 - 0.0
08/01:00am WNW 17 27 - - - - - - - 20.7 - 0.0
08/12:42am W 13 28 - - - - - - - 20.7 - 0.0
08/12:30am W 7 18 - - - - - - - 20.4 - 0.0
08/12:00am SW 5 11 - - - - - Partly cloudy - 20.4 - 0.0
 
Date/Time
EDT
Wind Sea
Height
m
Swell Vis
km
Cloud Weather Temp
°C
Press
MSL
hPa
Rain since
9am
mm
Dir  Spd
kts
Gust
kts
Height
m
Period
s
Dir
07/11:30pm NNW 3 8 - - - - - - - 20.0 - 0.0
07/11:00pm WNW 6 13 - - - - - - - 21.0 - 0.0
07/10:30pm NW 5 9 - - - - - - - 21.5 - 0.0
07/10:00pm WNW 3 6 - - - - - - - 21.8 - 0.0
07/09:30pm WNW 8 13 - - - - - - - 22.2 - 0.0
07/09:00pm WNW 7 10 - - - - - Cloudy - 22.3 - 0.0
07/08:30pm NW 11 15 - - - - - - - 23.0 - 0.0

Other formats

Comma delimited format used in spreadsheet applications
http://www.bom.gov.au/fwo/IDN60701/IDN60701.94749.axf

JavaScript Object Notation format (JSON) in row-major order
http://www.bom.gov.au/fwo/IDN60701/IDN60701.94749.json

Data quality

Most of these data are generated automatically and are frequently updated. Quality checks on data are not normally performed. It is possible for incorrect values to appear. Refer to information at About Latest Weather Observations and please check the disclaimer before using these data.